.
WxDataArchive / Data Records for 2009-11-08
2009-11-07 November 2009 2009-11-09

Data Records for Sunday, 08 November 2009

Time	Temp	Chill	HIndex	Humid	Dewpt	 Wind 	HiWind	WindDir	Rain 	Barom 
-----	----	-----	------	-----	-----	------	------	-------	-----	----- 
00:00	52.9	52.9	52.9	86	48.8	0	0	---	0.00	30.038 
00:05	52.8	52.8	52.8	86	48.7	0	0	---	0.00	30.038 
00:10	52.6	52.6	52.6	86	48.5	0	0	---	0.00	30.038 
00:15	52.6	52.6	52.6	87	48.8	0	0	---	0.00	30.037 
00:20	52.3	52.3	52.3	87	48.5	0	0	---	0.00	30.037 
00:25	52.0	52.0	52.0	87	48.3	0	0	---	0.00	30.037 
00:30	51.7	51.7	51.7	87	48.0	0	0	---	0.00	30.037 
00:35	51.6	51.6	51.6	87	47.9	0	0	---	0.00	30.037 
00:40	51.4	51.4	51.4	88	48.0	0	0	---	0.00	30.037 
00:45	51.3	51.3	51.3	88	47.9	0	0	---	0.00	30.049 
00:50	51.1	51.1	51.1	88	47.7	0	0	---	0.00	30.049 
00:55	50.8	50.8	50.8	88	47.4	0	0	---	0.00	30.049 
01:00	50.7	50.7	50.7	89	47.6	0	0	---	0.00	30.054 
01:05	50.7	50.7	50.7	89	47.6	0	0	---	0.00	30.054 
01:10	51.0	51.0	51.0	90	48.2	0	0	---	0.00	30.054 
01:15	51.0	51.0	51.0	90	48.2	0	0	---	0.00	30.051 
01:20	51.1	51.1	51.1	91	48.6	0	1	248	0.00	30.051 
01:25	51.4	51.4	51.4	91	48.9	0	1	248	0.00	30.051 
01:30	51.7	51.7	51.7	91	49.2	0	2	248	0.00	30.053 
01:35	52.0	52.0	52.0	90	49.2	0	1	248	0.00	30.053 
01:40	52.2	52.2	52.2	90	49.4	0	1	248	0.00	30.053 
01:45	52.3	52.3	52.3	89	49.2	0	1	248	0.00	30.055 
01:50	52.5	52.5	52.5	89	49.4	0	2	248	0.00	30.055 
01:55	52.5	52.5	52.5	88	49.0	0	1	248	0.00	30.055 
02:00	52.6	52.6	52.6	88	49.1	0	1	248	0.00	30.057 
02:05	52.5	52.5	52.5	88	49.0	0	1	248	0.00	30.057 
02:10	52.5	52.5	52.5	88	49.0	0	1	248	0.00	30.057 
02:15	52.6	52.6	52.6	88	49.1	0	1	248	0.00	30.066 
02:20	52.6	52.6	52.6	88	49.1	0	1	248	0.00	30.066 
02:25	52.5	52.5	52.5	88	49.0	0	1	248	0.00	30.066 
02:30	52.5	52.5	52.5	88	49.0	0	1	248	0.00	30.069 
02:35	52.3	52.3	52.3	88	48.9	0	1	248	0.00	30.069 
02:40	52.2	52.2	52.2	88	48.8	0	1	248	0.00	30.069 
02:45	52.0	52.0	52.0	88	48.6	0	0	---	0.00	30.080 
02:50	51.7	51.7	51.7	88	48.3	0	0	---	0.00	30.080 
02:55	51.4	51.4	51.4	88	48.0	0	0	---	0.00	30.080 
03:00	51.0	51.0	51.0	88	47.6	0	0	---	0.00	30.083 
03:05	50.5	50.5	50.5	88	47.1	0	0	---	0.00	30.083 
03:10	50.1	50.1	50.1	88	46.7	0	0	---	0.00	30.083 
03:15	49.6	49.6	49.6	88	46.2	0	0	---	0.00	30.085 
03:20	49.4	49.4	49.4	88	46.0	0	0	---	0.00	30.085 
03:25	48.9	48.9	48.9	88	45.5	0	0	---	0.00	30.085 
03:30	48.5	48.5	48.5	88	45.1	0	0	---	0.00	30.090 
03:35	48.2	48.2	48.2	89	45.1	0	0	---	0.00	30.090 
03:40	47.7	47.7	47.7	89	44.6	0	0	---	0.00	30.090 
03:45	47.4	47.4	47.4	89	44.3	0	0	---	0.00	30.099 
03:50	47.1	47.1	47.1	89	44.0	0	0	---	0.00	30.099 
03:55	46.8	46.8	46.8	90	44.0	0	0	---	0.00	30.099 
04:00	46.7	46.7	46.7	90	43.9	0	0	---	0.00	30.100 
04:05	46.4	46.4	46.4	90	43.6	0	0	---	0.00	30.100 
04:10	46.2	46.2	46.2	90	43.4	0	0	---	0.00	30.100 
04:15	46.0	46.0	46.0	91	43.5	0	0	---	0.00	30.106 
04:20	45.8	45.8	45.8	91	43.3	0	0	---	0.00	30.106 
04:25	45.7	45.7	45.7	91	43.2	0	0	---	0.00	30.106 
04:30	45.5	45.5	45.5	91	43.0	0	0	---	0.00	30.110 
04:35	45.2	45.2	45.2	91	42.7	0	0	---	0.00	30.110 
04:40	45.2	45.2	45.2	92	43.0	0	0	---	0.00	30.110 
04:45	45.1	45.1	45.1	92	42.9	0	0	---	0.00	30.107 
04:50	45.1	45.1	45.1	92	42.9	0	0	---	0.00	30.107 
04:55	44.9	44.9	44.9	92	42.7	0	0	---	0.00	30.107 
05:00	44.9	44.9	44.9	92	42.7	0	0	---	0.00	30.107 
05:05	44.9	44.9	44.9	93	43.0	0	0	---	0.00	30.107 
05:10	44.8	44.8	44.8	93	42.9	0	0	---	0.00	30.107 
05:15	44.5	44.5	44.5	93	42.6	0	0	---	0.00	30.114 
05:20	44.3	44.3	44.3	93	42.4	0	0	---	0.00	30.114 
05:25	44.1	44.1	44.1	93	42.2	0	0	---	0.00	30.114 
05:30	43.9	43.9	43.9	93	42.0	0	0	---	0.00	30.119 
05:35	43.8	43.8	43.8	93	41.9	0	0	---	0.00	30.119 
05:40	43.6	43.6	43.6	93	41.7	0	0	---	0.00	30.119 
05:45	43.3	43.3	43.3	93	41.4	0	0	---	0.00	30.123 
05:50	43.2	43.2	43.2	93	41.3	0	0	---	0.00	30.123 
05:55	43.2	43.2	43.2	93	41.3	0	0	---	0.00	30.123 
06:00	43.2	43.2	43.2	93	41.3	0	0	---	0.00	30.126 
06:05	43.1	43.1	43.1	93	41.2	0	0	---	0.00	30.126 
06:10	43.1	43.1	43.1	94	41.5	0	0	---	0.00	30.126 
06:15	42.9	42.9	42.9	94	41.3	0	0	---	0.00	30.126 
06:20	42.9	42.9	42.9	94	41.3	0	0	---	0.00	30.126 
06:25	42.8	42.8	42.8	94	41.2	0	0	---	0.00	30.126 
06:30	42.6	42.6	42.6	94	41.0	0	0	---	0.00	30.126 
06:35	42.5	42.5	42.5	94	40.9	0	0	---	0.00	30.126 
06:40	42.5	42.5	42.5	94	40.9	0	0	---	0.00	30.126 
06:45	42.3	42.3	42.3	94	40.7	0	0	---	0.00	30.136 
06:50	42.2	42.2	42.2	94	40.6	0	0	---	0.00	30.136 
06:55	42.2	42.2	42.2	94	40.6	0	0	---	0.00	30.136 
07:00	42.1	42.1	42.1	94	40.5	0	0	---	0.00	30.143 
07:05	42.1	42.1	42.1	94	40.5	0	0	---	0.00	30.143 
07:10	41.9	41.9	41.9	94	40.3	0	0	---	0.00	30.143 
07:15	41.9	41.9	41.9	94	40.3	0	0	---	0.00	30.151 
07:20	41.8	41.8	41.8	94	40.2	0	0	---	0.00	30.151 
07:25	41.8	41.8	41.8	94	40.2	0	0	---	0.00	30.151 
07:30	41.6	41.6	41.6	94	40.0	0	0	---	0.00	30.161 
07:35	41.6	41.6	41.6	94	40.0	0	0	---	0.00	30.161 
07:40	41.6	41.6	41.6	95	40.3	0	0	---	0.00	30.161 
07:45	41.6	41.6	41.6	94	40.0	0	0	---	0.00	30.164 
07:50	41.6	41.6	41.6	95	40.3	0	0	---	0.00	30.164 
07:55	41.6	41.6	41.6	95	40.3	0	0	---	0.00	30.164 
08:00	41.8	41.8	41.8	95	40.5	0	0	---	0.00	30.176 
08:05	41.9	41.9	41.9	95	40.6	0	0	---	0.00	30.176 
08:10	42.5	42.5	42.5	96	41.4	0	0	---	0.00	30.176 
08:15	43.1	43.1	43.1	96	42.0	0	0	---	0.00	30.178 
08:20	43.8	43.8	43.8	96	42.7	0	0	---	0.00	30.178 
08:25	44.3	44.3	44.3	96	43.2	0	0	---	0.00	30.178 
08:30	44.9	44.9	44.9	96	43.8	0	0	---	0.00	30.177 
08:35	45.7	45.7	45.7	96	44.6	0	0	---	0.00	30.177 
08:40	46.2	46.2	46.2	96	45.1	0	0	---	0.00	30.177 
08:45	46.8	46.8	46.8	96	45.7	0	0	---	0.00	30.189 
08:50	47.4	47.4	47.4	96	46.3	0	0	---	0.00	30.189 
08:55	48.2	48.2	48.2	96	47.1	0	0	---	0.00	30.189 
09:00	49.2	49.2	49.2	96	48.1	0	0	---	0.00	30.189 
09:05	49.9	49.9	49.9	96	48.8	0	0	---	0.00	30.189 
09:10	50.5	50.5	50.5	95	49.1	0	1	248	0.00	30.189 
09:15	51.1	51.1	51.1	95	49.7	0	0	---	0.00	30.196 
09:20	51.9	51.9	51.9	94	50.2	0	1	248	0.00	30.196 
09:25	52.5	52.5	52.5	92	50.2	0	0	---	0.00	30.196 
09:30	52.9	52.9	52.9	92	50.6	0	0	---	0.00	30.195 
09:35	53.3	53.3	53.3	91	50.7	0	1	90	0.00	30.195 
09:40	53.8	53.8	53.8	90	50.9	0	1	90	0.00	30.195 
09:45	54.4	54.4	54.4	88	50.9	0	1	90	0.00	30.191 
09:50	55.0	55.0	55.0	88	51.5	0	1	45	0.00	30.191 
09:55	55.4	55.4	55.4	86	51.3	0	1	45	0.00	30.191 
10:00	56.0	56.0	56.0	84	51.2	0	2	112	0.00	30.189 
10:05	56.6	56.6	56.6	82	51.2	0	2	90	0.00	30.189 
10:10	57.0	57.0	57.0	81	51.2	0	1	112	0.00	30.189 
10:15	57.5	57.5	57.5	79	51.0	0	2	112	0.00	30.186 
10:20	58.0	58.0	58.0	78	51.2	0	1	112	0.00	30.186 
10:25	58.6	58.6	58.6	77	51.4	0	3	90	0.00	30.186 
10:30	59.0	59.0	59.0	76	51.4	0	2	90	0.00	30.186 
10:35	59.5	59.5	59.5	74	51.2	1	3	90	0.00	30.186 
10:40	59.8	59.8	59.8	75	51.9	0	1	292	0.00	30.186 
10:45	60.2	60.2	60.2	73	51.5	0	0	---	0.00	30.184 
10:50	60.5	60.5	60.5	73	51.8	0	0	---	0.00	30.184 
10:55	60.9	60.9	60.9	71	51.4	0	0	---	0.00	30.184 
11:00	61.3	61.3	61.3	71	51.8	0	0	---	0.00	30.185 
11:05	61.6	61.6	61.6	71	52.1	0	2	292	0.00	30.185 
11:10	62.0	62.0	62.0	71	52.5	0	1	292	0.00	30.185 
11:15	62.3	62.3	62.3	70	52.4	0	1	292	0.00	30.183 
11:20	62.6	62.6	62.6	70	52.7	0	2	292	0.00	30.183 
11:25	62.7	62.7	62.7	69	52.4	0	2	292	0.00	30.183 
11:30	63.1	63.1	63.1	70	53.2	0	3	248	0.00	30.175 
11:35	63.4	63.4	63.4	69	53.0	0	2	248	0.00	30.175 
11:40	63.7	63.7	63.7	69	53.3	0	1	248	0.00	30.175 
11:45	64.0	64.0	64.0	68	53.2	0	2	248	0.00	30.170 
11:50	64.3	64.3	64.3	68	53.5	0	2	248	0.00	30.170 
11:55	64.7	64.7	64.7	67	53.5	1	2	248	0.00	30.170 
12:00	65.2	65.2	65.2	67	54.0	0	3	225	0.00	30.165 
12:05	65.3	65.3	65.3	64	52.8	2	5	90	0.00	30.165 
12:10	65.6	65.6	65.6	65	53.5	1	3	112	0.00	30.165 
12:15	65.6	65.6	65.6	66	53.9	1	4	112	0.00	30.164 
12:20	66.0	66.0	66.0	65	53.9	0	3	270	0.00	30.164 
12:25	66.1	66.1	66.1	64	53.6	1	4	225	0.00	30.164 
12:30	66.4	66.4	66.4	65	54.3	1	5	248	0.00	30.160 
12:35	66.6	66.6	66.6	64	54.0	0	3	112	0.00	30.160 
12:40	66.9	66.9	66.9	62	53.4	1	3	112	0.00	30.160 
12:45	67.1	67.1	67.1	60	52.7	2	6	112	0.00	30.151 
12:50	67.1	67.1	67.1	60	52.7	1	4	112	0.00	30.151 
12:55	67.3	67.3	67.3	60	52.9	1	3	112	0.00	30.151 
13:00	67.3	67.3	67.3	60	52.9	1	5	135	0.00	30.147 
13:05	67.4	67.4	67.4	59	52.6	2	6	90	0.00	30.147 
13:10	67.6	67.6	67.6	59	52.8	1	4	135	0.00	30.147 
13:15	67.8	67.8	67.8	58	52.5	1	4	68	0.00	30.144 
13:20	67.8	67.8	67.8	59	52.9	1	5	68	0.00	30.144 
13:25	68.1	68.1	68.1	59	53.2	1	5	68	0.00	30.144 
13:30	68.3	68.3	68.3	58	52.9	1	6	90	0.00	30.136 
13:35	68.4	68.4	68.4	58	53.0	1	4	90	0.00	30.136 
13:40	68.8	68.8	68.8	58	53.4	1	5	90	0.00	30.136 
13:45	68.9	68.9	68.9	58	53.5	1	5	0	0.00	30.128 
13:50	68.9	68.9	68.9	57	53.0	1	4	90	0.00	30.128 
13:55	68.9	68.9	68.9	57	53.0	1	6	270	0.00	30.128 
14:00	69.1	69.1	69.1	55	52.2	1	7	270	0.00	30.127 
14:05	69.1	69.1	69.1	56	52.7	1	3	112	0.00	30.127 
14:10	69.3	69.3	69.3	57	53.4	1	4	90	0.00	30.127 
14:15	69.3	69.3	69.3	55	52.4	1	4	68	0.00	30.124 
14:20	69.3	69.3	69.3	55	52.4	2	6	248	0.00	30.124 
14:25	69.3	69.3	69.3	55	52.4	1	4	90	0.00	30.124 
14:30	69.4	69.4	69.4	55	52.5	1	3	90	0.00	30.121 
14:35	69.6	69.6	69.6	55	52.7	1	6	45	0.00	30.121 
14:40	69.6	69.6	69.6	54	52.2	1	5	270	0.00	30.121 
14:45	69.4	69.4	69.4	54	52.0	1	5	270	0.00	30.119 
14:50	69.3	69.3	69.3	54	51.9	1	5	270	0.00	30.119 
14:55	69.3	69.3	69.3	56	52.9	0	2	248	0.00	30.119 
15:00	69.6	69.6	69.6	55	52.7	1	4	248	0.00	30.117 
15:05	69.6	69.6	69.6	54	52.2	0	3	270	0.00	30.117 
15:10	69.8	69.8	69.8	55	52.9	0	2	248	0.00	30.117 
15:15	70.3	70.3	70.3	54	52.9	1	5	248	0.00	30.118 
15:20	70.3	70.3	70.3	53	52.3	1	3	315	0.00	30.118 
15:25	69.9	69.9	69.9	52	51.5	1	5	112	0.00	30.118 
15:30	69.4	69.4	69.4	54	52.0	0	2	90	0.00	30.121 
15:35	68.9	68.9	68.9	55	52.1	0	1	180	0.00	30.121 
15:40	68.6	68.6	68.6	56	52.3	0	3	68	0.00	30.121 
15:45	68.6	68.6	68.6	55	51.8	1	3	225	0.00	30.122 
15:50	68.6	68.6	68.6	57	52.7	0	3	225	0.00	30.122 
15:55	68.9	68.9	68.9	55	52.1	0	3	270	0.00	30.122 
16:00	69.3	69.3	69.3	55	52.4	1	3	112	0.00	30.118 
16:05	69.4	69.4	69.4	54	52.0	1	2	112	0.00	30.118 
16:10	69.3	69.3	69.3	55	52.4	1	2	248	0.00	30.118 
16:15	68.9	68.9	68.9	54	51.6	0	3	225	0.00	30.121 
16:20	68.8	68.8	68.8	55	52.0	0	3	270	0.00	30.121 
16:25	68.8	68.8	68.8	55	52.0	1	2	270	0.00	30.121 
16:30	68.8	68.8	68.8	54	51.5	0	3	315	0.00	30.123 
16:35	68.9	68.9	68.9	54	51.6	0	1	22	0.00	30.123 
16:40	68.8	68.8	68.8	53	51.0	0	3	112	0.00	30.123 
16:45	68.8	68.8	68.8	54	51.5	0	3	112	0.00	30.120 
16:50	68.6	68.6	68.6	54	51.3	1	4	248	0.00	30.120 
16:55	68.4	68.4	68.4	54	51.1	0	1	248	0.00	30.120 
17:00	68.3	68.3	68.3	54	51.0	0	2	225	0.00	30.122 
17:05	67.9	67.9	67.9	54	50.6	0	1	225	0.00	30.122 
17:10	67.8	67.8	67.8	55	51.0	0	1	225	0.00	30.122 
17:15	67.3	67.3	67.3	56	51.1	0	1	225	0.00	30.135 
17:20	66.9	66.9	66.9	56	50.7	0	1	225	0.00	30.135 
17:25	66.4	66.4	66.4	57	50.7	0	1	225	0.00	30.135 
17:30	66.1	66.1	66.1	57	50.4	0	0	---	0.00	30.139 
17:35	65.6	65.6	65.6	58	50.4	0	0	---	0.00	30.139 
17:40	65.2	65.2	65.2	58	50.0	0	0	---	0.00	30.139 
17:45	64.7	64.7	64.7	59	50.0	0	0	---	0.00	30.149 
17:50	64.2	64.2	64.2	60	50.0	0	0	---	0.00	30.149 
17:55	63.9	63.9	63.9	61	50.2	0	0	---	0.00	30.149 
18:00	63.4	63.4	63.4	62	50.1	0	0	---	0.00	30.156 
18:05	63.1	63.1	63.1	62	49.9	0	0	---	0.00	30.156 
18:10	62.6	62.6	62.6	63	49.8	0	0	---	0.00	30.156 
18:15	62.3	62.3	62.3	64	50.0	0	0	---	0.00	30.158 
18:20	61.8	61.8	61.8	65	49.9	0	0	---	0.00	30.158 
18:25	61.3	61.3	61.3	65	49.4	0	0	---	0.00	30.158 
18:30	60.9	60.9	60.9	66	49.5	0	1	225	0.00	30.156 
18:35	60.5	60.5	60.5	67	49.5	0	0	---	0.00	30.156 
18:40	60.2	60.2	60.2	67	49.2	0	0	---	0.00	30.156 
18:45	59.9	59.9	59.9	68	49.3	0	0	---	0.00	30.158 
18:50	59.5	59.5	59.5	69	49.3	0	0	---	0.00	30.158 
18:55	59.2	59.2	59.2	70	49.4	0	0	---	0.00	30.158 
19:00	58.9	58.9	58.9	71	49.5	0	0	---	0.00	30.166 
19:05	58.7	58.7	58.7	71	49.3	0	0	---	0.00	30.166 
19:10	59.0	59.0	59.0	71	49.6	0	1	225	0.00	30.166 
19:15	59.2	59.2	59.2	71	49.8	0	0	---	0.00	30.167 
19:20	59.5	59.5	59.5	70	49.7	0	0	---	0.00	30.167 
19:25	59.6	59.6	59.6	69	49.4	0	1	225	0.00	30.167 
19:30	59.8	59.8	59.8	69	49.6	0	0	---	0.00	30.163 
19:35	59.8	59.8	59.8	69	49.6	0	0	---	0.00	30.163 
19:40	59.8	59.8	59.8	69	49.6	0	1	225	0.00	30.163 
19:45	59.6	59.6	59.6	69	49.4	0	0	---	0.00	30.162 
19:50	59.5	59.5	59.5	69	49.3	0	0	---	0.00	30.162 
19:55	59.3	59.3	59.3	70	49.5	0	0	---	0.00	30.162 
20:00	59.3	59.3	59.3	70	49.5	0	0	---	0.00	30.174 
20:05	59.2	59.2	59.2	70	49.4	0	0	---	0.00	30.174 
20:10	58.9	58.9	58.9	71	49.5	0	0	---	0.00	30.174 
20:15	58.6	58.6	58.6	71	49.2	0	0	---	0.00	30.172 
20:20	58.4	58.4	58.4	71	49.0	0	0	---	0.00	30.172 
20:25	58.1	58.1	58.1	72	49.1	0	1	225	0.00	30.172 
20:30	58.0	58.0	58.0	73	49.4	0	0	---	0.00	30.176 
20:35	58.0	58.0	58.0	73	49.4	0	0	---	0.00	30.176 
20:40	58.0	58.0	58.0	73	49.4	0	1	225	0.00	30.176 
20:45	58.0	58.0	58.0	72	49.0	0	1	225	0.00	30.180 
20:50	58.0	58.0	58.0	72	49.0	0	0	---	0.00	30.180 
20:55	57.8	57.8	57.8	73	49.2	0	1	225	0.00	30.180 
21:00	57.6	57.6	57.6	73	49.0	0	2	225	0.00	30.183 
21:05	57.8	57.8	57.8	72	48.8	0	1	225	0.00	30.183 
21:10	58.0	58.0	58.0	72	49.0	0	3	225	0.00	30.183 
21:15	58.0	58.0	58.0	72	49.0	0	1	225	0.00	30.182 
21:20	57.6	57.6	57.6	72	48.6	0	0	---	0.00	30.182 
21:25	57.6	57.6	57.6	72	48.6	0	1	225	0.00	30.182 
21:30	57.5	57.5	57.5	72	48.5	0	1	225	0.00	30.183 
21:35	57.8	57.8	57.8	72	48.8	1	3	248	0.00	30.183 
21:40	58.3	58.3	58.3	70	48.6	1	4	270	0.00	30.183 
21:45	58.6	58.6	58.6	69	48.5	1	3	270	0.00	30.185 
21:50	58.9	58.9	58.9	69	48.7	1	4	248	0.00	30.185 
21:55	58.9	58.9	58.9	68	48.4	0	2	248	0.00	30.185 
22:00	58.7	58.7	58.7	68	48.2	1	5	248	0.00	30.187 
22:05	58.6	58.6	58.6	69	48.5	0	2	248	0.00	30.187 
22:10	58.6	58.6	58.6	69	48.5	1	4	248	0.00	30.187 
22:15	58.6	58.6	58.6	69	48.5	0	3	248	0.00	30.184 
22:20	58.4	58.4	58.4	69	48.3	1	4	270	0.00	30.184 
22:25	58.4	58.4	58.4	69	48.3	1	2	248	0.00	30.184 
22:30	58.3	58.3	58.3	69	48.2	0	2	248	0.00	30.189 
22:35	58.1	58.1	58.1	69	48.0	0	3	248	0.00	30.189 
22:40	57.8	57.8	57.8	69	47.7	0	3	248	0.00	30.189 
22:45	57.5	57.5	57.5	70	47.8	0	1	248	0.00	30.188 
22:50	57.2	57.2	57.2	70	47.5	0	2	248	0.00	30.188 
22:55	57.2	57.2	57.2	71	47.9	0	2	248	0.00	30.188 
23:00	57.0	57.0	57.0	71	47.7	0	2	248	0.00	30.190 
23:05	56.7	56.7	56.7	71	47.4	0	2	248	0.00	30.190 
23:10	56.6	56.6	56.6	72	47.7	0	3	248	0.00	30.190 
23:15	56.5	56.5	56.5	72	47.6	0	3	248	0.00	30.185 
23:20	56.3	56.3	56.3	73	47.8	0	2	248	0.00	30.185 
23:25	56.2	56.2	56.2	73	47.7	0	2	248	0.00	30.185 
23:30	56.0	56.0	56.0	73	47.5	0	1	248	0.00	30.183 
23:35	55.9	55.9	55.9	73	47.4	0	3	248	0.00	30.183 
23:40	55.7	55.7	55.7	74	47.5	0	1	248	0.00	30.183 
23:45	55.7	55.7	55.7	74	47.5	0	1	248	0.00	30.178 
23:50	55.7	55.7	55.7	74	47.5	1	3	248	0.00	30.178 
23:55	55.9	55.9	55.9	74	47.7	0	2	248	0.00	30.178 

CoCoRaHS
IN-AL-39
A2 Web Hosting
Creative Commons License
GoDaddy
search engine by freefind advanced

loaded 2018-11-22 05:41:09 • last modified 2010-11-18 10:43:29
Privacy PolicyDisclaimer
• wx.awcolley.com is powered by PmWiki v.2002016 •
• all content (unless otherwise noted) © 2018 A W Colley